Time;durP1;ratioP1;P1;durP2;ratioP2;P2;SDS_P1;SDS_P2;PMS_P1;PMS_P2;Temp;Humidity;BMP_temperature;BMP_pressure;BME280_temperature;BME280_humidity;BME280_pressure;Samples;Min_cycle;Max_cycle;Signal;HPM_P1;HPM_P2
2023/06/22 00:01:24;;;;;;;19.58;15.77;;;;;;;;;;5084964;28;20212;-69
2023/06/22 00:03:50;;;;;;;17.05;15.05;;;;;;;;;;5081193;28;20180;-69
2023/06/22 00:06:16;;;;;;;21.17;16.05;;;;;;;;;;5080058;28;20195;-70
2023/06/22 00:08:41;;;;;;;19.05;15.55;;;;;;;;;;5089040;28;20230;-70
2023/06/22 00:11:06;;;;;;;18.67;16.77;;;;;;;;;;5081398;28;20526;-70
2023/06/22 00:13:32;;;;;;;18.83;16.00;;;;;;;;;;5086883;28;20203;-69
2023/06/22 00:15:57;;;;;;;20.42;16.55;;;;;;;;;;5081760;28;20180;-70
2023/06/22 00:18:27;;;;;;;17.23;15.40;;;;;;;;;;5084649;28;20282;-69
2023/06/22 00:20:56;;;;;;;17.33;15.60;;;;;;;;;;5073130;28;20276;-70
2023/06/22 00:23:23;;;;;;;18.48;16.45;;;;;;;;;;5083578;28;20474;-70
2023/06/22 00:25:49;;;;;;;19.70;15.93;;;;;;;;;;5081956;28;20192;-69
2023/06/22 00:28:14;;;;;;;17.08;15.38;;;;;;;;;;5081118;28;20192;-69
2023/06/22 00:30:40;;;;;;;17.90;16.02;;;;;;;;;;5073406;28;20220;-69
2023/06/22 00:33:07;;;;;;;19.77;15.80;;;;;;;;;;5082028;28;20195;-69
2023/06/22 00:35:33;;;;;;;19.95;16.77;;;;;;;;;;5082187;28;20188;-70
2023/06/22 00:38:00;;;;;;;22.90;17.35;;;;;;;;;;5082450;28;20188;-70
2023/06/22 00:40:27;;;;;;;19.75;16.80;;;;;;;;;;5079325;28;20239;-69
2023/06/22 00:42:53;;;;;;;22.50;17.52;;;;;;;;;;5080985;28;20194;-69
2023/06/22 00:45:19;;;;;;;18.80;16.98;;;;;;;;;;5079171;28;20227;-69
2023/06/22 00:47:44;;;;;;;18.58;16.33;;;;;;;;;;5078538;28;20187;-70
2023/06/22 00:50:18;;;;;;;20.08;17.45;;;;;;;;;;5083839;28;20291;-70
2023/06/22 00:52:44;;;;;;;19.75;17.63;;;;;;;;;;5081945;28;20184;-70
2023/06/22 00:55:09;;;;;;;21.33;18.02;;;;;;;;;;5083802;28;20196;-69
2023/06/22 00:57:37;;;;;;;25.23;19.50;;;;;;;;;;5083386;28;20193;-69
2023/06/22 01:00:05;;;;;;;24.38;19.92;;;;;;;;;;5083998;28;20274;-69
2023/06/22 01:02:31;;;;;;;26.80;20.42;;;;;;;;;;5079971;28;20192;-69
2023/06/22 01:04:57;;;;;;;25.27;21.55;;;;;;;;;;5079877;28;20191;-70
2023/06/22 01:07:34;;;;;;;31.02;23.75;;;;;;;;;;5080802;28;20587;-70
2023/06/22 01:10:10;;;;;;;24.10;20.48;;;;;;;;;;5073416;28;20516;-70
2023/06/22 01:12:43;;;;;;;24.52;21.33;;;;;;;;;;5075966;28;20500;-70
2023/06/22 01:15:21;;;;;;;28.88;25.45;;;;;;;;;;5087497;28;20193;-69
2023/06/22 01:17:48;;;;;;;25.77;23.13;;;;;;;;;;5079094;28;20186;-70
2023/06/22 01:20:15;;;;;;;29.92;26.13;;;;;;;;;;5080112;28;20203;-70
2023/06/22 01:23:04;;;;;;;31.40;24.83;;;;;;;;;;5082691;28;20290;-70
2023/06/22 01:25:38;;;;;;;26.60;23.55;;;;;;;;;;5083296;28;20704;-68
2023/06/22 01:28:31;;;;;;;27.00;22.65;;;;;;;;;;5080772;28;20246;-68
2023/06/22 01:31:04;;;;;;;27.70;24.80;;;;;;;;;;5083997;28;20183;-68
2023/06/22 01:33:34;;;;;;;26.30;23.48;;;;;;;;;;5082764;28;20188;-69
2023/06/22 01:36:01;;;;;;;28.40;24.98;;;;;;;;;;5082901;28;20318;-68
2023/06/22 01:38:27;;;;;;;32.40;26.35;;;;;;;;;;5077766;28;20204;-68
2023/06/22 01:40:53;;;;;;;32.35;28.88;;;;;;;;;;5081027;28;20228;-68
2023/06/22 01:43:22;;;;;;;31.63;27.73;;;;;;;;;;5084368;28;20487;-68
2023/06/22 01:45:48;;;;;;;36.53;28.50;;;;;;;;;;5080402;28;20184;-70
2023/06/22 01:48:14;;;;;;;32.08;27.73;;;;;;;;;;5085532;28;20647;-70
2023/06/22 01:50:40;;;;;;;35.15;31.15;;;;;;;;;;5084537;28;20202;-70
2023/06/22 01:53:06;;;;;;;38.05;29.75;;;;;;;;;;5080035;28;20266;-70
2023/06/22 01:55:32;;;;;;;35.10;30.48;;;;;;;;;;5081935;28;20665;-70
2023/06/22 01:57:57;;;;;;;44.42;32.63;;;;;;;;;;5074061;28;20271;-69
2023/06/22 02:00:27;;;;;;;40.67;32.58;;;;;;;;;;5084291;28;20187;-69
2023/06/22 02:03:08;;;;;;;37.22;32.78;;;;;;;;;;5083394;28;20184;-69
2023/06/22 02:05:38;;;;;;;42.47;35.03;;;;;;;;;;5082843;28;20196;-69
2023/06/22 02:08:10;;;;;;;43.60;35.58;;;;;;;;;;5075044;28;20185;-69
2023/06/22 02:10:38;;;;;;;46.45;35.40;;;;;;;;;;5083192;28;20195;-69
2023/06/22 02:13:06;;;;;;;41.38;36.53;;;;;;;;;;5083017;28;20549;-69
2023/06/22 02:15:32;;;;;;;45.28;38.03;;;;;;;;;;5082444;28;20661;-69
2023/06/22 02:17:57;;;;;;;52.72;40.20;;;;;;;;;;5072372;28;20184;-69
2023/06/22 02:20:24;;;;;;;49.88;39.15;;;;;;;;;;5081849;28;20192;-69
2023/06/22 02:22:49;;;;;;;46.42;39.67;;;;;;;;;;5077660;28;20210;-69
2023/06/22 02:25:14;;;;;;;53.70;44.42;;;;;;;;;;5079772;28;20188;-69
2023/06/22 02:27:40;;;;;;;54.83;43.85;;;;;;;;;;5083746;28;20192;-69
2023/06/22 02:30:08;;;;;;;56.15;45.47;;;;;;;;;;5086830;28;20618;-69
2023/06/22 02:32:35;;;;;;;57.67;46.80;;;;;;;;;;5081529;28;20279;-69
2023/06/22 02:35:03;;;;;;;55.20;45.67;;;;;;;;;;5079127;28;20192;-69
2023/06/22 02:37:29;;;;;;;54.85;44.60;;;;;;;;;;5080269;28;20337;-69
2023/06/22 02:39:54;;;;;;;60.95;45.83;;;;;;;;;;5085158;28;20306;-68
2023/06/22 02:42:21;;;;;;;53.03;43.50;;;;;;;;;;5079462;28;20181;-68
2023/06/22 02:44:47;;;;;;;56.13;43.97;;;;;;;;;;5078492;28;20271;-69
2023/06/22 02:47:12;;;;;;;57.50;44.55;;;;;;;;;;5083008;28;20263;-68
2023/06/22 02:49:38;;;;;;;58.05;45.22;;;;;;;;;;5076384;28;20210;-68
2023/06/22 02:52:03;;;;;;;59.53;47.58;;;;;;;;;;5087334;28;20184;-68
2023/06/22 02:54:29;;;;;;;58.78;47.28;;;;;;;;;;5079356;28;20273;-68
2023/06/22 02:56:54;;;;;;;61.13;49.28;;;;;;;;;;5078313;28;20200;-68
2023/06/22 02:59:23;;;;;;;57.22;46.58;;;;;;;;;;5072743;28;20285;-69
2023/06/22 03:01:49;;;;;;;60.00;47.40;;;;;;;;;;5087138;28;20261;-69
2023/06/22 03:04:15;;;;;;;61.92;48.08;;;;;;;;;;5081370;28;20352;-69
2023/06/22 03:06:41;;;;;;;64.38;49.03;;;;;;;;;;5075033;28;20662;-69
2023/06/22 03:09:07;;;;;;;60.22;48.38;;;;;;;;;;5081051;28;20223;-69
2023/06/22 03:11:33;;;;;;;59.20;47.67;;;;;;;;;;5086375;28;20184;-69
2023/06/22 03:13:59;;;;;;;62.80;49.95;;;;;;;;;;5072762;28;20649;-69
2023/06/22 03:16:25;;;;;;;65.18;49.50;;;;;;;;;;5086277;28;20206;-69
2023/06/22 03:18:50;;;;;;;71.82;52.97;;;;;;;;;;5076617;28;20191;-70
2023/06/22 03:21:16;;;;;;;73.35;56.42;;;;;;;;;;5080452;28;20189;-70
2023/06/22 03:23:42;;;;;;;75.05;56.22;;;;;;;;;;5081307;28;20197;-70
2023/06/22 03:26:09;;;;;;;77.15;57.00;;;;;;;;;;5081586;28;20205;-70
2023/06/22 03:28:35;;;;;;;82.60;59.58;;;;;;;;;;5067513;28;20258;-70
2023/06/22 03:31:00;;;;;;;75.22;56.88;;;;;;;;;;5077494;28;20200;-70
2023/06/22 03:33:25;;;;;;;70.80;55.03;;;;;;;;;;5087943;28;20587;-70
2023/06/22 03:35:51;;;;;;;81.68;59.63;;;;;;;;;;5085577;28;20278;-70
2023/06/22 03:38:17;;;;;;;87.13;61.08;;;;;;;;;;5076096;28;20200;-70
2023/06/22 03:40:43;;;;;;;82.00;61.47;;;;;;;;;;5071919;28;20597;-70
2023/06/22 03:43:08;;;;;;;83.45;62.63;;;;;;;;;;5076565;28;20200;-69
2023/06/22 03:45:34;;;;;;;78.85;60.92;;;;;;;;;;5085340;28;20203;-70
2023/06/22 03:48:00;;;;;;;86.22;62.53;;;;;;;;;;5082625;28;20257;-70
2023/06/22 03:50:26;;;;;;;86.10;61.53;;;;;;;;;;5075809;28;20690;-69
2023/06/22 03:52:52;;;;;;;84.32;62.25;;;;;;;;;;5074365;28;20184;-69
2023/06/22 03:55:19;;;;;;;82.35;61.85;;;;;;;;;;5088388;28;20677;-69
2023/06/22 03:57:44;;;;;;;79.03;59.80;;;;;;;;;;5082446;28;20197;-70
2023/06/22 04:00:10;;;;;;;82.60;59.67;;;;;;;;;;5074403;28;20685;-70
2023/06/22 04:02:36;;;;;;;84.97;60.75;;;;;;;;;;5081540;28;20192;-69
2023/06/22 04:05:01;;;;;;;83.50;59.42;;;;;;;;;;5070568;28;20734;-69
2023/06/22 04:07:26;;;;;;;78.43;58.55;;;;;;;;;;5082320;28;20184;-69
2023/06/22 04:09:52;;;;;;;73.72;57.25;;;;;;;;;;5080016;28;20208;-69
2023/06/22 04:12:17;;;;;;;75.75;57.55;;;;;;;;;;5086203;28;20242;-70
2023/06/22 04:14:43;;;;;;;74.72;57.08;;;;;;;;;;5080062;28;20196;-70
2023/06/22 04:17:08;;;;;;;74.40;56.60;;;;;;;;;;5086783;28;20211;-70
2023/06/22 04:19:33;;;;;;;78.32;57.58;;;;;;;;;;5074692;28;20184;-70
2023/06/22 04:21:59;;;;;;;68.38;52.72;;;;;;;;;;5081038;28;20188;-70
2023/06/22 04:24:24;;;;;;;73.63;54.95;;;;;;;;;;5087031;28;20571;-70
2023/06/22 04:26:54;;;;;;;72.28;54.72;;;;;;;;;;5077722;28;20200;-68
2023/06/22 04:29:20;;;;;;;73.20;52.97;;;;;;;;;;5088297;28;20310;-70
2023/06/22 04:31:50;;;;;;;72.43;53.88;;;;;;;;;;5085367;28;20420;-70
2023/06/22 04:34:16;;;;;;;72.28;54.58;;;;;;;;;;5089436;28;20214;-70
2023/06/22 04:36:42;;;;;;;72.75;53.35;;;;;;;;;;5085872;28;20275;-70
2023/06/22 04:39:11;;;;;;;73.57;56.53;;;;;;;;;;5089813;28;20688;-70
2023/06/22 04:41:43;;;;;;;68.65;54.42;;;;;;;;;;5087459;28;20192;-70
2023/06/22 04:44:12;;;;;;;71.78;54.20;;;;;;;;;;5084062;28;20652;-70
2023/06/22 04:46:38;;;;;;;73.03;54.70;;;;;;;;;;5082661;28;20874;-70
2023/06/22 04:49:06;;;;;;;67.22;53.55;;;;;;;;;;5081373;28;20282;-70
2023/06/22 04:51:32;;;;;;;71.80;53.50;;;;;;;;;;5088277;28;20480;-70
2023/06/22 04:54:00;;;;;;;62.75;49.92;;;;;;;;;;5070897;28;20197;-70
2023/06/22 04:56:28;;;;;;;61.22;48.80;;;;;;;;;;5082835;28;20271;-70
2023/06/22 04:58:55;;;;;;;62.17;48.55;;;;;;;;;;5076021;28;20502;-71
2023/06/22 05:01:22;;;;;;;58.25;46.95;;;;;;;;;;5079178;28;20254;-70
2023/06/22 05:03:47;;;;;;;58.03;44.80;;;;;;;;;;5078735;28;20196;-70
2023/06/22 05:06:14;;;;;;;49.20;42.22;;;;;;;;;;5072727;28;20184;-70
2023/06/22 05:08:39;;;;;;;51.50;41.60;;;;;;;;;;5076000;28;20215;-69
2023/06/22 05:11:05;;;;;;;49.05;40.58;;;;;;;;;;5079000;28;20567;-69
2023/06/22 05:13:30;;;;;;;46.88;39.95;;;;;;;;;;5082807;28;20199;-69
2023/06/22 05:16:00;;;;;;;43.97;37.95;;;;;;;;;;5079979;28;20427;-69
2023/06/22 05:18:29;;;;;;;42.60;35.85;;;;;;;;;;5084270;28;20196;-69
2023/06/22 05:20:55;;;;;;;43.03;36.45;;;;;;;;;;5077832;28;20219;-69
2023/06/22 05:23:20;;;;;;;38.38;33.63;;;;;;;;;;5075446;28;20261;-69
2023/06/22 05:25:46;;;;;;;42.17;34.60;;;;;;;;;;5071024;28;20190;-69
2023/06/22 05:28:12;;;;;;;41.13;33.63;;;;;;;;;;5074497;28;20287;-69
2023/06/22 05:30:37;;;;;;;41.55;32.40;;;;;;;;;;5085073;28;20245;-69
2023/06/22 05:33:03;;;;;;;37.38;31.83;;;;;;;;;;5077555;28;20177;-69
2023/06/22 05:35:29;;;;;;;35.67;30.40;;;;;;;;;;5081752;28;20192;-69
2023/06/22 05:37:55;;;;;;;35.90;30.80;;;;;;;;;;5076886;28;20215;-68
2023/06/22 05:40:20;;;;;;;34.72;28.48;;;;;;;;;;5086555;28;20225;-69
2023/06/22 05:42:46;;;;;;;32.72;29.05;;;;;;;;;;5077931;28;20673;-69
2023/06/22 05:45:11;;;;;;;30.65;26.13;;;;;;;;;;5085054;28;20609;-69
2023/06/22 05:47:36;;;;;;;28.65;25.55;;;;;;;;;;5080384;28;20215;-69
2023/06/22 05:50:06;;;;;;;26.25;23.40;;;;;;;;;;5076103;28;20212;-69
2023/06/22 05:52:32;;;;;;;25.83;23.05;;;;;;;;;;5084590;28;20211;-69
2023/06/22 05:54:57;;;;;;;23.92;21.35;;;;;;;;;;5085179;28;20261;-69
2023/06/22 05:57:22;;;;;;;25.67;21.55;;;;;;;;;;5076012;28;20195;-69
2023/06/22 05:59:48;;;;;;;26.77;20.55;;;;;;;;;;5074727;28;20551;-69
2023/06/22 06:02:14;;;;;;;25.02;19.70;;;;;;;;;;5077677;28;20208;-69
2023/06/22 06:04:39;;;;;;;24.67;18.55;;;;;;;;;;5082494;28;20225;-70
2023/06/22 06:07:04;;;;;;;22.20;18.17;;;;;;;;;;5086039;28;20196;-69
2023/06/22 06:09:30;;;;;;;19.08;16.75;;;;;;;;;;5077180;28;20212;-70
2023/06/22 06:11:56;;;;;;;18.58;16.05;;;;;;;;;;5079954;28;20192;-70
2023/06/22 06:14:21;;;;;;;16.92;14.82;;;;;;;;;;5075328;28;20180;-70
2023/06/22 06:16:47;;;;;;;18.45;14.40;;;;;;;;;;5085578;28;20706;-70
2023/06/22 06:19:13;;;;;;;14.85;13.30;;;;;;;;;;5082579;28;20531;-71
2023/06/22 06:21:38;;;;;;;16.08;12.93;;;;;;;;;;5077725;28;20399;-70
2023/06/22 06:24:04;;;;;;;15.32;12.82;;;;;;;;;;5070680;28;20220;-71
2023/06/22 06:26:32;;;;;;;16.52;13.57;;;;;;;;;;5067137;28;20266;-71
2023/06/22 06:28:58;;;;;;;16.25;13.18;;;;;;;;;;5066869;28;20282;-71
2023/06/22 06:31:24;;;;;;;15.30;12.38;;;;;;;;;;5083610;28;20223;-71
2023/06/22 06:33:50;;;;;;;15.60;12.63;;;;;;;;;;5083110;28;20890;-72
2023/06/22 06:36:16;;;;;;;15.63;12.23;;;;;;;;;;5073810;28;20644;-71
2023/06/22 06:38:41;;;;;;;14.88;12.30;;;;;;;;;;5076450;28;20623;-72
2023/06/22 06:41:07;;;;;;;14.52;12.60;;;;;;;;;;5083536;28;20226;-72
2023/06/22 06:43:32;;;;;;;13.75;12.27;;;;;;;;;;5087671;28;20233;-72
2023/06/22 06:45:57;;;;;;;20.88;13.00;;;;;;;;;;5076572;28;20179;-71
2023/06/22 06:48:23;;;;;;;16.55;12.00;;;;;;;;;;5077755;28;20772;-71
2023/06/22 06:50:48;;;;;;;15.93;12.80;;;;;;;;;;5079553;28;20191;-71
2023/06/22 06:53:14;;;;;;;15.45;13.00;;;;;;;;;;5082163;28;20216;-71
2023/06/22 06:55:39;;;;;;;14.98;11.13;;;;;;;;;;5075755;28;20180;-72
2023/06/22 06:58:07;;;;;;;15.38;11.27;;;;;;;;;;5071740;28;20192;-72
2023/06/22 07:00:33;;;;;;;15.55;12.20;;;;;;;;;;5070827;28;20291;-72
2023/06/22 07:02:58;;;;;;;14.95;11.68;;;;;;;;;;5075054;28;20308;-71
2023/06/22 07:05:23;;;;;;;20.52;12.40;;;;;;;;;;5075505;28;20185;-71
2023/06/22 07:07:49;;;;;;;17.27;12.80;;;;;;;;;;5081102;28;20267;-71
2023/06/22 07:10:15;;;;;;;13.98;11.35;;;;;;;;;;5077926;28;20227;-72
2023/06/22 07:12:40;;;;;;;17.10;12.55;;;;;;;;;;5081064;28;20204;-72
2023/06/22 07:15:08;;;;;;;16.55;11.82;;;;;;;;;;5081123;28;20188;-72
2023/06/22 07:17:34;;;;;;;16.52;11.68;;;;;;;;;;5089333;28;20196;-72
2023/06/22 07:20:01;;;;;;;14.13;12.07;;;;;;;;;;5083558;28;20191;-72
2023/06/22 07:22:26;;;;;;;12.52;10.77;;;;;;;;;;5087030;28;20228;-71
2023/06/22 07:24:51;;;;;;;13.98;10.98;;;;;;;;;;5085407;28;20653;-72
2023/06/22 07:27:21;;;;;;;13.10;11.10;;;;;;;;;;5086121;28;20196;-71
2023/06/22 07:29:46;;;;;;;15.18;12.60;;;;;;;;;;5085461;28;20632;-71
2023/06/22 07:32:11;;;;;;;20.92;12.98;;;;;;;;;;5090171;28;20244;-71
2023/06/22 07:34:37;;;;;;;29.08;14.48;;;;;;;;;;5088832;28;20195;-71
2023/06/22 07:37:04;;;;;;;28.00;15.18;;;;;;;;;;5089688;28;20236;-71
2023/06/22 07:39:29;;;;;;;19.17;12.55;;;;;;;;;;5087955;28;20216;-71
2023/06/22 07:41:55;;;;;;;15.90;12.15;;;;;;;;;;5078288;28;20193;-72
2023/06/22 07:44:20;;;;;;;14.88;11.25;;;;;;;;;;5086971;28;20204;-71
2023/06/22 07:46:45;;;;;;;24.83;12.45;;;;;;;;;;5083989;28;20192;-72
2023/06/22 07:49:11;;;;;;;18.08;12.68;;;;;;;;;;5076371;28;20204;-71
2023/06/22 07:51:37;;;;;;;58.15;14.13;;;;;;;;;;5070062;28;20189;-71
2023/06/22 07:54:02;;;;;;;15.15;12.50;;;;;;;;;;5088388;28;20192;-71
2023/06/22 07:56:27;;;;;;;13.32;10.88;;;;;;;;;;5075239;28;20192;-72
2023/06/22 07:58:53;;;;;;;15.45;10.95;;;;;;;;;;5072183;28;20624;-71
2023/06/22 08:01:20;;;;;;;12.55;10.93;;;;;;;;;;5070494;28;20448;-70
2023/06/22 08:03:48;;;;;;;14.10;10.65;;;;;;;;;;5078018;28;20563;-70
2023/06/22 08:06:13;;;;;;;13.75;10.85;;;;;;;;;;5073861;28;20272;-70
2023/06/22 08:08:38;;;;;;;12.30;10.93;;;;;;;;;;5084943;28;20580;-71
2023/06/22 08:11:05;;;;;;;15.73;10.93;;;;;;;;;;5072090;28;20180;-70
2023/06/22 08:13:31;;;;;;;14.95;9.73;;;;;;;;;;5071231;28;20353;-70
2023/06/22 08:15:56;;;;;;;12.40;9.82;;;;;;;;;;5087987;28;20561;-71
2023/06/22 08:18:21;;;;;;;10.43;9.23;;;;;;;;;;5073035;28;20185;-70
2023/06/22 08:20:47;;;;;;;13.18;9.70;;;;;;;;;;5074236;28;20223;-70
2023/06/22 08:23:12;;;;;;;12.60;8.70;;;;;;;;;;5087860;28;20207;-70
2023/06/22 08:25:38;;;;;;;11.52;9.77;;;;;;;;;;5079792;28;20192;-72
2023/06/22 08:28:04;;;;;;;22.55;18.27;;;;;;;;;;5076437;28;20212;-70
2023/06/22 08:30:29;;;;;;;11.10;9.10;;;;;;;;;;5065826;28;20251;-71
2023/06/22 08:32:55;;;;;;;14.45;9.07;;;;;;;;;;5073612;28;20348;-71
2023/06/22 08:35:22;;;;;;;13.02;9.10;;;;;;;;;;5082458;28;20683;-71
2023/06/22 08:37:51;;;;;;;13.30;8.93;;;;;;;;;;5077578;28;20215;-72
2023/06/22 08:40:17;;;;;;;10.35;7.85;;;;;;;;;;5077625;28;20561;-72
2023/06/22 08:42:42;;;;;;;10.02;8.43;;;;;;;;;;5084555;28;20210;-71
2023/06/22 08:45:08;;;;;;;10.63;7.53;;;;;;;;;;5075360;28;20276;-71
2023/06/22 08:47:34;;;;;;;9.18;7.43;;;;;;;;;;5082449;28;20736;-71
2023/06/22 08:50:01;;;;;;;8.20;7.30;;;;;;;;;;5078254;28;20217;-71
2023/06/22 08:52:27;;;;;;;12.52;6.85;;;;;;;;;;5085116;28;20241;-71
2023/06/22 08:54:52;;;;;;;9.98;6.65;;;;;;;;;;5071139;28;20188;-71
2023/06/22 08:57:17;;;;;;;8.25;7.45;;;;;;;;;;5079271;28;20220;-71
2023/06/22 08:59:43;;;;;;;8.90;6.70;;;;;;;;;;5078704;28;20656;-71
2023/06/22 09:02:09;;;;;;;10.20;7.40;;;;;;;;;;5070275;28;20220;-71
2023/06/22 09:04:36;;;;;;;9.48;7.22;;;;;;;;;;5082740;28;20214;-70
2023/06/22 09:07:02;;;;;;;9.95;7.30;;;;;;;;;;5069745;28;20707;-70
2023/06/22 09:09:28;;;;;;;8.50;7.63;;;;;;;;;;5070363;28;20228;-70
2023/06/22 09:11:53;;;;;;;8.43;7.13;;;;;;;;;;5079645;28;20608;-70
2023/06/22 09:14:18;;;;;;;9.57;6.43;;;;;;;;;;5080574;28;20253;-69
2023/06/22 09:16:44;;;;;;;10.80;7.55;;;;;;;;;;5078551;28;20191;-70
2023/06/22 09:19:09;;;;;;;8.30;6.85;;;;;;;;;;5076445;28;20176;-70
2023/06/22 09:21:34;;;;;;;9.38;7.38;;;;;;;;;;5079560;28;20185;-70
2023/06/22 09:24:00;;;;;;;11.63;6.97;;;;;;;;;;5076309;28;20192;-70
2023/06/22 09:26:25;;;;;;;9.70;6.85;;;;;;;;;;5066977;28;20239;-70
2023/06/22 09:28:51;;;;;;;11.30;7.45;;;;;;;;;;5074366;28;20216;-70
2023/06/22 09:31:16;;;;;;;10.55;7.70;;;;;;;;;;5071957;28;20520;-70
2023/06/22 09:33:42;;;;;;;9.52;6.95;;;;;;;;;;5083549;28;20184;-71
2023/06/22 09:36:08;;;;;;;9.75;7.82;;;;;;;;;;5088219;28;20550;-69
2023/06/22 09:38:37;;;;;;;10.10;7.90;;;;;;;;;;5081506;28;20276;-71
2023/06/22 09:41:02;;;;;;;9.73;6.82;;;;;;;;;;5074974;28;20222;-70
2023/06/22 09:43:28;;;;;;;11.32;7.63;;;;;;;;;;5077468;28;20199;-71
2023/06/22 09:45:53;;;;;;;10.65;7.65;;;;;;;;;;5081164;28;20216;-70
2023/06/22 09:48:19;;;;;;;8.52;7.03;;;;;;;;;;5074631;28;20180;-71
2023/06/22 09:50:44;;;;;;;9.25;7.38;;;;;;;;;;5073115;28;20356;-71
2023/06/22 09:53:09;;;;;;;9.65;6.57;;;;;;;;;;5082600;28;20191;-72
2023/06/22 09:55:35;;;;;;;10.10;7.88;;;;;;;;;;5071072;28;20177;-71
2023/06/22 09:58:00;;;;;;;12.68;7.70;;;;;;;;;;5082010;28;20276;-71
2023/06/22 10:00:26;;;;;;;8.57;7.68;;;;;;;;;;5083054;28;20210;-72
2023/06/22 10:02:52;;;;;;;8.70;7.35;;;;;;;;;;5079632;28;20184;-71
2023/06/22 10:05:17;;;;;;;8.07;7.30;;;;;;;;;;5078720;28;20547;-71
2023/06/22 10:07:43;;;;;;;12.90;8.05;;;;;;;;;;5072838;28;20459;-72
2023/06/22 10:10:10;;;;;;;8.77;7.20;;;;;;;;;;5086538;28;20211;-71
2023/06/22 10:12:35;;;;;;;10.50;8.02;;;;;;;;;;5082577;28;20188;-71
2023/06/22 10:15:01;;;;;;;7.68;6.95;;;;;;;;;;5081824;28;20188;-71
2023/06/22 10:17:26;;;;;;;7.97;7.07;;;;;;;;;;5072377;28;20276;-71
2023/06/22 10:19:52;;;;;;;8.88;7.97;;;;;;;;;;5068633;28;20194;-70
2023/06/22 10:22:17;;;;;;;10.75;8.18;;;;;;;;;;5077158;28;20191;-71
2023/06/22 10:24:44;;;;;;;10.65;7.78;;;;;;;;;;5081020;28;20192;-70
2023/06/22 10:27:13;;;;;;;9.25;8.40;;;;;;;;;;5076878;28;20655;-72
2023/06/22 10:29:39;;;;;;;11.13;9.65;;;;;;;;;;5078279;28;20259;-72
2023/06/22 10:32:05;;;;;;;9.35;8.35;;;;;;;;;;5079535;28;20190;-71
2023/06/22 10:34:30;;;;;;;15.40;11.90;;;;;;;;;;5080145;28;20419;-71
2023/06/22 10:36:55;;;;;;;12.25;9.90;;;;;;;;;;5083453;28;20641;-72
2023/06/22 10:39:21;;;;;;;13.32;9.63;;;;;;;;;;5073556;28;20262;-72
2023/06/22 10:41:46;;;;;;;12.82;9.20;;;;;;;;;;5072761;28;20218;-70
2023/06/22 10:44:12;;;;;;;16.35;11.60;;;;;;;;;;5084855;28;20198;-71
2023/06/22 10:46:37;;;;;;;15.23;10.30;;;;;;;;;;5089700;28;20219;-70
2023/06/22 10:49:03;;;;;;;16.38;11.93;;;;;;;;;;5083247;28;20220;-71
2023/06/22 10:51:28;;;;;;;12.05;8.57;;;;;;;;;;5070582;28;20192;-72
2023/06/22 10:53:54;;;;;;;12.13;9.00;;;;;;;;;;5074638;28;20267;-71
2023/06/22 10:56:19;;;;;;;11.63;10.15;;;;;;;;;;5074528;28;20642;-72
2023/06/22 10:58:45;;;;;;;11.15;8.98;;;;;;;;;;5079647;28;20181;-70
2023/06/22 11:01:11;;;;;;;12.02;8.95;;;;;;;;;;5081628;28;20226;-70
2023/06/22 11:03:36;;;;;;;11.07;8.80;;;;;;;;;;5084735;28;20188;-70
2023/06/22 11:06:01;;;;;;;11.45;9.82;;;;;;;;;;5074093;28;20697;-70
2023/06/22 11:08:27;;;;;;;12.60;10.07;;;;;;;;;;5075471;28;20204;-70
2023/06/22 11:10:52;;;;;;;12.32;9.88;;;;;;;;;;5083528;28;20218;-70
2023/06/22 11:13:18;;;;;;;15.02;10.30;;;;;;;;;;5078739;28;20179;-70
2023/06/22 11:15:43;;;;;;;12.13;9.65;;;;;;;;;;5076975;28;20234;-70
2023/06/22 11:18:08;;;;;;;13.18;10.25;;;;;;;;;;5084471;28;20177;-69
2023/06/22 11:20:38;;;;;;;12.80;10.60;;;;;;;;;;5083477;28;20181;-71
2023/06/22 11:23:06;;;;;;;11.63;10.30;;;;;;;;;;5069293;28;20238;-70
2023/06/22 11:25:34;;;;;;;12.57;10.35;;;;;;;;;;5071723;28;20196;-70
2023/06/22 11:28:01;;;;;;;14.40;10.93;;;;;;;;;;5089635;28;20614;-69
2023/06/22 11:30:27;;;;;;;12.52;10.23;;;;;;;;;;5083497;28;20577;-69
2023/06/22 11:32:52;;;;;;;12.80;10.70;;;;;;;;;;5075476;28;20181;-69
2023/06/22 11:35:18;;;;;;;14.57;11.57;;;;;;;;;;5079320;28;20217;-69
2023/06/22 11:37:43;;;;;;;11.82;10.55;;;;;;;;;;5071629;28;20189;-70
2023/06/22 11:40:09;;;;;;;11.40;10.15;;;;;;;;;;5076894;28;20219;-69
2023/06/22 11:42:35;;;;;;;13.88;10.80;;;;;;;;;;5069950;28;20180;-69
2023/06/22 11:45:00;;;;;;;14.00;10.60;;;;;;;;;;5073203;28;20468;-69
2023/06/22 11:47:26;;;;;;;11.63;10.20;;;;;;;;;;5070216;28;20283;-69
2023/06/22 11:49:51;;;;;;;12.35;11.05;;;;;;;;;;5076020;28;20198;-69
2023/06/22 11:52:17;;;;;;;11.70;10.38;;;;;;;;;;5072544;28;20288;-70
2023/06/22 11:54:43;;;;;;;11.48;10.35;;;;;;;;;;5073218;28;20188;-70
2023/06/22 11:57:08;;;;;;;12.18;10.00;;;;;;;;;;5080162;28;20200;-69
2023/06/22 11:59:34;;;;;;;10.50;8.88;;;;;;;;;;5082040;28;20169;-69
2023/06/22 12:01:59;;;;;;;10.55;8.60;;;;;;;;;;5070038;28;20558;-70
2023/06/22 12:04:25;;;;;;;14.60;8.15;;;;;;;;;;5082044;28;20193;-70
2023/06/22 12:06:50;;;;;;;11.88;7.53;;;;;;;;;;5084567;28;20184;-70
2023/06/22 12:09:15;;;;;;;9.85;8.15;;;;;;;;;;5080216;28;20216;-70
2023/06/22 12:11:41;;;;;;;12.00;9.77;;;;;;;;;;5080722;28;20553;-71
2023/06/22 12:14:06;;;;;;;11.60;9.38;;;;;;;;;;5085957;28;20660;-70
2023/06/22 12:16:31;;;;;;;12.90;9.52;;;;;;;;;;5073649;28;20188;-70
2023/06/22 12:18:57;;;;;;;13.27;10.30;;;;;;;;;;5078183;28;20184;-70
2023/06/22 12:21:22;;;;;;;16.85;10.73;;;;;;;;;;5075174;28;20545;-70
2023/06/22 12:23:48;;;;;;;12.50;10.43;;;;;;;;;;5086419;28;20211;-70
2023/06/22 12:26:13;;;;;;;12.10;9.85;;;;;;;;;;5075670;28;20519;-70
2023/06/22 12:28:38;;;;;;;11.30;9.95;;;;;;;;;;5087322;28;20905;-70
2023/06/22 12:31:04;;;;;;;11.82;9.65;;;;;;;;;;5074406;28;20196;-70
2023/06/22 12:33:30;;;;;;;11.15;9.48;;;;;;;;;;5084628;28;20208;-70
2023/06/22 12:35:56;;;;;;;13.63;10.10;;;;;;;;;;5078070;28;20280;-71
2023/06/22 12:38:21;;;;;;;13.10;10.30;;;;;;;;;;5073136;28;20727;-71
2023/06/22 12:40:47;;;;;;;14.75;9.85;;;;;;;;;;5045695;28;1041672;-71
2023/06/22 12:43:12;;;;;;;12.13;9.57;;;;;;;;;;5070197;28;20238;-71
2023/06/22 12:45:38;;;;;;;11.30;9.68;;;;;;;;;;5082824;28;20537;-71
2023/06/22 12:48:03;;;;;;;14.95;9.88;;;;;;;;;;5072740;28;20188;-71
2023/06/22 12:50:29;;;;;;;12.38;11.02;;;;;;;;;;5078903;28;20243;-71
2023/06/22 12:52:54;;;;;;;12.05;10.48;;;;;;;;;;5070509;28;20595;-70
2023/06/22 12:55:19;;;;;;;11.75;10.10;;;;;;;;;;5083426;28;20207;-70
2023/06/22 12:57:45;;;;;;;14.18;11.07;;;;;;;;;;5070081;28;20623;-70
2023/06/22 13:00:11;;;;;;;14.63;11.07;;;;;;;;;;5070547;28;20200;-70
2023/06/22 13:02:36;;;;;;;12.98;10.05;;;;;;;;;;5084902;28;20195;-70
2023/06/22 13:05:04;;;;;;;11.90;10.70;;;;;;;;;;5085754;28;20192;-70
2023/06/22 13:07:30;;;;;;;12.82;11.38;;;;;;;;;;5071613;28;20719;-70
2023/06/22 13:09:55;;;;;;;15.13;11.25;;;;;;;;;;5078038;28;20291;-70
2023/06/22 13:12:21;;;;;;;14.45;12.00;;;;;;;;;;5071211;28;20189;-70
2023/06/22 13:14:46;;;;;;;13.98;12.55;;;;;;;;;;5084248;28;20193;-70
2023/06/22 13:17:13;;;;;;;17.30;14.23;;;;;;;;;;5081824;28;20223;-70
2023/06/22 13:19:38;;;;;;;15.88;13.15;;;;;;;;;;5084906;28;20767;-70
2023/06/22 13:22:04;;;;;;;17.90;14.60;;;;;;;;;;5075855;28;20267;-70
2023/06/22 13:24:29;;;;;;;16.85;15.10;;;;;;;;;;5075463;28;20513;-70
2023/06/22 13:26:55;;;;;;;18.35;16.35;;;;;;;;;;5081900;28;20216;-70
2023/06/22 13:29:20;;;;;;;20.40;16.17;;;;;;;;;;5081197;28;20651;-71
2023/06/22 13:31:46;;;;;;;22.80;16.67;;;;;;;;;;5078772;28;20554;-70
2023/06/22 13:34:11;;;;;;;18.25;16.45;;;;;;;;;;5084382;28;20200;-70
2023/06/22 13:36:36;;;;;;;20.35;18.25;;;;;;;;;;5078740;28;20195;-69
2023/06/22 13:39:02;;;;;;;21.30;19.13;;;;;;;;;;5076634;28;20210;-69
2023/06/22 13:41:28;;;;;;;26.52;19.30;;;;;;;;;;5087372;28;20402;-71
2023/06/22 13:43:53;;;;;;;22.60;20.17;;;;;;;;;;5072102;28;20598;-70
2023/06/22 13:46:18;;;;;;;22.48;19.60;;;;;;;;;;5081566;28;20191;-70
2023/06/22 13:48:44;;;;;;;23.75;21.17;;;;;;;;;;5077403;28;20223;-70
2023/06/22 13:51:09;;;;;;;25.70;20.85;;;;;;;;;;5081130;28;20196;-70
2023/06/22 13:53:34;;;;;;;27.15;22.23;;;;;;;;;;5080137;28;20184;-69
2023/06/22 13:56:00;;;;;;;27.48;21.80;;;;;;;;;;5078177;28;20176;-69
2023/06/22 13:58:25;;;;;;;25.15;21.10;;;;;;;;;;5075658;28;20718;-68
2023/06/22 14:00:50;;;;;;;26.40;21.90;;;;;;;;;;5081284;28;20282;-68
2023/06/22 14:03:16;;;;;;;25.52;22.13;;;;;;;;;;5074582;28;20197;-67
2023/06/22 14:05:42;;;;;;;26.23;22.08;;;;;;;;;;5075826;28;20538;-67
2023/06/22 14:08:07;;;;;;;26.45;22.27;;;;;;;;;;5078834;28;20184;-69
2023/06/22 14:10:33;;;;;;;26.63;23.85;;;;;;;;;;5079523;28;20227;-69
2023/06/22 14:12:59;;;;;;;28.88;24.50;;;;;;;;;;5077088;28;20524;-68
2023/06/22 14:15:25;;;;;;;27.20;24.30;;;;;;;;;;5081117;28;20912;-68